createdAt,value
2022-11-26T00:01:16.563Z,6.40
2022-11-26T00:03:43.832Z,6.40
2022-11-26T00:06:35.087Z,6.40
2022-11-26T00:09:04.006Z,6.40
2022-11-26T00:11:30.766Z,6.40
2022-11-26T00:13:57.530Z,6.40
2022-11-26T00:16:24.317Z,6.40
2022-11-26T00:18:51.116Z,6.40
2022-11-26T00:21:24.838Z,6.30
2022-11-26T00:23:52.788Z,6.30
2022-11-26T00:26:21.943Z,6.30
2022-11-26T00:28:55.217Z,6.30
2022-11-26T00:31:23.285Z,6.20
2022-11-26T00:33:50.241Z,6.20
2022-11-26T00:36:31.997Z,6.20
2022-11-26T00:38:58.647Z,6.20
2022-11-26T00:41:29.430Z,6.10
2022-11-26T00:43:56.181Z,6.10
2022-11-26T00:46:23.116Z,6.10
2022-11-26T00:48:50.218Z,6.10
2022-11-26T00:51:20.242Z,6.10
2022-11-26T00:53:47.804Z,6.10
2022-11-26T00:56:20.590Z,6.10
2022-11-26T00:58:48.562Z,6.10
2022-11-26T01:01:21.117Z,6.10
2022-11-26T01:03:48.171Z,6.00
2022-11-26T01:06:24.200Z,6.00
2022-11-26T01:08:51.258Z,5.90
2022-11-26T01:11:20.294Z,5.90
2022-11-26T01:13:49.371Z,5.90
2022-11-26T01:16:28.863Z,5.90
2022-11-26T01:18:59.761Z,5.80
2022-11-26T01:21:28.833Z,5.90
2022-11-26T01:23:56.278Z,5.90
2022-11-26T01:26:32.330Z,5.90
2022-11-26T01:28:59.120Z,5.90
2022-11-26T01:31:28.488Z,5.90
2022-11-26T01:33:55.877Z,6.00
2022-11-26T01:36:25.604Z,6.00
2022-11-26T01:38:54.229Z,6.00
2022-11-26T01:41:49.566Z,6.00
2022-11-26T01:44:19.995Z,6.00
2022-11-26T01:46:47.717Z,6.00
2022-11-26T01:49:30.991Z,6.10
2022-11-26T01:52:14.429Z,6.10
2022-11-26T01:54:43.399Z,6.10
2022-11-26T01:57:13.202Z,6.10
2022-11-26T01:59:42.511Z,6.10
2022-11-26T02:02:09.371Z,6.20
2022-11-26T02:04:41.418Z,6.10
2022-11-26T02:07:08.148Z,6.20
2022-11-26T02:09:35.290Z,6.10
2022-11-26T02:12:02.299Z,6.10
2022-11-26T02:14:40.571Z,6.10
2022-11-26T02:17:23.284Z,6.20
2022-11-26T02:20:09.070Z,6.10
2022-11-26T02:22:57.730Z,6.10
2022-11-26T02:26:02.122Z,6.20
2022-11-26T02:28:50.440Z,6.10
2022-11-26T02:31:32.617Z,6.10
2022-11-26T02:34:26.477Z,6.20
2022-11-26T02:39:29.982Z,6.20
2022-11-26T02:42:00.104Z,6.20
2022-11-26T02:44:38.766Z,6.20
2022-11-26T02:47:11.096Z,6.20
2022-11-26T02:49:39.424Z,6.20
2022-11-26T02:52:07.689Z,6.20
2022-11-26T02:54:36.791Z,6.20
2022-11-26T02:57:07.258Z,6.20
2022-11-26T02:59:34.290Z,6.20
2022-11-26T03:02:14.674Z,6.20
2022-11-26T03:04:43.618Z,6.20
2022-11-26T03:07:12.980Z,6.20
2022-11-26T03:09:52.464Z,6.10
2022-11-26T03:12:19.433Z,6.10
2022-11-26T03:14:46.562Z,6.20
2022-11-26T03:17:14.110Z,6.20
2022-11-26T03:19:41.161Z,6.20
2022-11-26T03:22:08.522Z,6.10
2022-11-26T03:24:35.889Z,6.10
2022-11-26T03:27:02.744Z,6.10
2022-11-26T03:29:29.632Z,6.10
2022-11-26T03:31:56.480Z,6.10
2022-11-26T03:34:23.405Z,6.10
2022-11-26T03:36:50.321Z,6.10
2022-11-26T03:39:17.164Z,6.10
2022-11-26T03:41:44.291Z,6.10
2022-11-26T03:44:12.232Z,6.10
2022-11-26T03:46:39.284Z,6.10
2022-11-26T03:49:06.558Z,6.10
2022-11-26T03:51:33.729Z,6.10
2022-11-26T03:54:00.403Z,6.10
2022-11-26T03:56:27.322Z,6.10
2022-11-26T03:58:54.146Z,6.10
2022-11-26T04:01:21.094Z,6.10
2022-11-26T04:03:47.971Z,6.10
2022-11-26T04:06:14.900Z,6.10
2022-11-26T04:08:41.782Z,6.10
2022-11-26T04:11:08.637Z,6.10
2022-11-26T04:13:35.662Z,6.10
2022-11-26T04:16:02.694Z,6.10
2022-11-26T04:18:29.495Z,6.10
2022-11-26T04:20:56.229Z,6.10
2022-11-26T04:23:22.993Z,6.10
2022-11-26T04:25:49.779Z,6.10
2022-11-26T04:28:16.535Z,6.10
2022-11-26T04:30:43.855Z,6.10
2022-11-26T04:33:10.906Z,6.10
2022-11-26T04:35:37.883Z,6.20
2022-11-26T04:38:04.693Z,6.20
2022-11-26T04:40:31.742Z,6.20
2022-11-26T04:42:58.629Z,6.20
2022-11-26T04:45:25.338Z,6.20
2022-11-26T04:47:52.072Z,6.20
2022-11-26T04:50:19.371Z,6.20
2022-11-26T04:52:48.472Z,6.20
2022-11-26T04:55:16.223Z,6.20
2022-11-26T04:57:43.272Z,6.20
2022-11-26T05:00:11.183Z,6.20
2022-11-26T05:02:37.956Z,6.20
2022-11-26T05:05:04.911Z,6.20
2022-11-26T05:07:31.777Z,6.20
2022-11-26T05:09:58.695Z,6.20
2022-11-26T05:12:25.881Z,6.20
2022-11-26T05:14:52.610Z,6.20
2022-11-26T05:17:19.294Z,6.20
2022-11-26T05:19:46.143Z,6.30
2022-11-26T05:22:12.993Z,6.30
2022-11-26T05:24:40.018Z,6.20
2022-11-26T05:27:06.896Z,6.20
2022-11-26T05:29:33.681Z,6.20
2022-11-26T05:32:00.545Z,6.20
2022-11-26T05:34:27.308Z,6.20
2022-11-26T05:36:54.067Z,6.20
2022-11-26T05:39:21.200Z,6.20
2022-11-26T05:41:48.413Z,6.10
2022-11-26T05:44:15.106Z,6.10
2022-11-26T05:46:42.954Z,6.10
2022-11-26T05:49:10.554Z,6.10
2022-11-26T05:51:37.234Z,6.20
2022-11-26T05:54:04.302Z,6.20
2022-11-26T05:56:31.006Z,6.10
2022-11-26T05:58:57.719Z,6.10
2022-11-26T06:01:24.579Z,6.10
2022-11-26T06:03:51.376Z,6.10
2022-11-26T06:06:18.181Z,6.20
2022-11-26T06:08:44.887Z,6.20
2022-11-26T06:11:13.412Z,6.10
2022-11-26T06:13:40.367Z,6.10
2022-11-26T06:16:07.823Z,6.20
2022-11-26T06:18:36.356Z,6.20
2022-11-26T06:21:04.944Z,6.10
2022-11-26T06:23:32.788Z,6.10
2022-11-26T06:25:59.795Z,6.10
2022-11-26T06:28:26.781Z,6.20
2022-11-26T06:30:53.490Z,6.10
2022-11-26T06:33:20.169Z,6.20
2022-11-26T06:35:46.867Z,6.10
2022-11-26T06:38:13.563Z,6.10
2022-11-26T06:40:40.256Z,6.10
2022-11-26T06:43:06.968Z,6.10
2022-11-26T06:45:35.036Z,6.10
2022-11-26T06:48:01.863Z,6.10
2022-11-26T06:50:28.555Z,6.00
2022-11-26T06:52:56.121Z,6.00
2022-11-26T06:55:22.862Z,6.00
2022-11-26T06:57:51.441Z,6.00
2022-11-26T07:00:18.600Z,5.90
2022-11-26T07:02:45.374Z,5.90
2022-11-26T07:05:12.190Z,5.90
2022-11-26T07:07:40.169Z,5.90
2022-11-26T07:10:07.835Z,5.90
2022-11-26T07:12:34.561Z,5.90
2022-11-26T07:15:01.347Z,5.90
2022-11-26T07:17:28.896Z,5.90
2022-11-26T07:19:55.763Z,5.90
2022-11-26T07:22:22.540Z,5.90
2022-11-26T07:24:49.317Z,5.90
2022-11-26T07:27:16.047Z,5.90
2022-11-26T07:29:42.805Z,5.90
2022-11-26T07:32:09.620Z,5.90
2022-11-26T07:34:36.590Z,5.90
2022-11-26T07:37:03.507Z,6.00
2022-11-26T07:39:30.391Z,5.90
2022-11-26T07:41:57.064Z,6.00
2022-11-26T07:44:23.950Z,6.00
2022-11-26T07:46:50.676Z,6.00
2022-11-26T07:49:17.355Z,6.10
2022-11-26T07:51:44.162Z,6.10
2022-11-26T07:54:10.896Z,6.20
2022-11-26T07:56:37.659Z,6.30
2022-11-26T07:59:04.790Z,6.30
2022-11-26T08:01:32.398Z,6.40
2022-11-26T08:04:00.791Z,6.50
2022-11-26T08:06:30.309Z,6.60
2022-11-26T08:08:59.454Z,6.60
2022-11-26T08:11:28.308Z,6.60
2022-11-26T08:13:57.706Z,6.70
2022-11-26T08:16:26.790Z,6.70
2022-11-26T08:19:00.546Z,6.70
2022-11-26T08:21:27.758Z,6.70
2022-11-26T08:23:54.872Z,6.70
2022-11-26T08:26:27.546Z,6.80
2022-11-26T08:29:00.566Z,6.80
2022-11-26T08:31:28.184Z,6.80
2022-11-26T08:34:02.875Z,6.90
2022-11-26T08:36:31.177Z,6.90
2022-11-26T08:38:59.339Z,6.90
2022-11-26T08:41:26.665Z,6.90
2022-11-26T08:44:08.915Z,6.90
2022-11-26T08:46:41.068Z,6.90
2022-11-26T08:49:10.911Z,7.00
2022-11-26T08:51:37.629Z,7.00
2022-11-26T08:54:04.942Z,7.10
2022-11-26T08:56:31.746Z,7.10
2022-11-26T08:58:58.491Z,7.20
2022-11-26T09:01:30.629Z,7.20
2022-11-26T09:03:59.563Z,7.30
2022-11-26T09:06:29.035Z,7.40
2022-11-26T09:09:14.758Z,7.60
2022-11-26T09:11:51.546Z,8.10
2022-11-26T09:14:22.839Z,9.10
2022-11-26T09:16:49.630Z,9.70
2022-11-26T09:19:17.118Z,10.10
2022-11-26T09:21:45.761Z,10.20
2022-11-26T09:24:13.459Z,10.20
2022-11-26T09:26:41.087Z,10.10
2022-11-26T09:29:07.819Z,9.90
2022-11-26T09:31:34.544Z,9.80
2022-11-26T09:34:02.378Z,9.70
2022-11-26T09:36:29.663Z,9.60
2022-11-26T09:38:57.831Z,9.50
2022-11-26T09:41:42.290Z,9.40
2022-11-26T09:44:22.156Z,9.40
2022-11-26T09:47:12.436Z,9.30
2022-11-26T09:50:10.889Z,9.20
2022-11-26T09:52:52.699Z,9.10
2022-11-26T09:55:27.679Z,9.10
2022-11-26T09:57:59.220Z,9.00
2022-11-26T10:00:30.279Z,9.00
2022-11-26T10:02:57.757Z,9.10
2022-11-26T10:05:40.316Z,9.20
2022-11-26T10:08:28.069Z,9.30
2022-11-26T10:11:03.966Z,9.30
2022-11-26T10:14:07.021Z,9.30
2022-11-26T10:16:58.134Z,9.30
2022-11-26T10:19:35.239Z,9.40
2022-11-26T10:22:13.729Z,9.60
2022-11-26T10:24:42.436Z,9.60
2022-11-26T10:27:18.411Z,9.60
2022-11-26T10:30:22.101Z,9.50
2022-11-26T10:32:52.916Z,9.40
2022-11-26T10:35:24.416Z,9.30
2022-11-26T10:38:04.932Z,9.10
2022-11-26T10:40:45.654Z,9.00
2022-11-26T10:43:22.888Z,8.90
2022-11-26T10:45:52.729Z,8.90
2022-11-26T10:48:33.674Z,8.90
2022-11-26T10:51:26.349Z,8.80
2022-11-26T10:53:57.874Z,8.70
2022-11-26T10:56:47.094Z,8.60
2022-11-26T10:59:55.615Z,8.50
2022-11-26T11:02:43.395Z,8.50
2022-11-26T11:05:12.978Z,8.40
2022-11-26T11:10:28.603Z,8.40
2022-11-26T11:13:19.667Z,8.40
2022-11-26T11:16:07.269Z,8.40
2022-11-26T11:18:37.490Z,8.50
2022-11-26T11:21:08.503Z,8.40
2022-11-26T11:24:09.461Z,8.40
2022-11-26T11:26:45.759Z,8.40
2022-11-26T11:29:37.894Z,8.40
2022-11-26T11:32:51.562Z,8.40
2022-11-26T11:35:27.029Z,8.50
2022-11-26T11:37:56.328Z,8.60
2022-11-26T11:40:30.748Z,8.70
2022-11-26T11:43:04.248Z,8.80
2022-11-26T11:45:41.330Z,8.80
2022-11-26T11:48:33.824Z,8.80
2022-11-26T11:51:38.708Z,8.70
2022-11-26T11:54:39.211Z,8.70
2022-11-26T11:57:30.314Z,8.60
2022-11-26T12:00:19.536Z,8.60
2022-11-26T12:03:23.071Z,8.70
2022-11-26T12:06:19.474Z,8.80
2022-11-26T12:09:14.252Z,9.10
2022-11-26T12:12:17.704Z,9.30
2022-11-26T12:15:11.426Z,9.40
2022-11-26T12:17:54.858Z,9.50
2022-11-26T12:20:22.283Z,9.60
2022-11-26T12:23:24.374Z,9.60
2022-11-26T12:26:21.995Z,9.50
2022-11-26T12:28:56.284Z,9.50
2022-11-26T12:31:51.494Z,9.50
2022-11-26T12:34:56.072Z,9.50
2022-11-26T12:37:56.862Z,9.50
2022-11-26T12:40:51.395Z,9.60
2022-11-26T12:43:45.412Z,9.60
2022-11-26T12:47:00.353Z,9.60
2022-11-26T12:50:26.204Z,9.50
2022-11-26T12:53:05.056Z,9.50
2022-11-26T12:55:51.354Z,9.50
2022-11-26T12:58:32.919Z,9.50
2022-11-26T13:00:59.727Z,9.50
2022-11-26T13:03:33.648Z,9.50
2022-11-26T13:06:27.978Z,9.50
2022-11-26T13:09:10.039Z,9.60
2022-11-26T13:12:10.781Z,9.60
2022-11-26T13:14:48.734Z,9.50
2022-11-26T13:17:18.347Z,9.50
2022-11-26T13:19:47.590Z,9.50
2022-11-26T13:22:29.185Z,9.40
2022-11-26T13:24:58.681Z,9.40
2022-11-26T13:28:03.097Z,9.40
2022-11-26T13:30:47.378Z,9.40
2022-11-26T13:33:16.961Z,9.30
2022-11-26T13:35:49.610Z,9.30
2022-11-26T13:38:31.422Z,9.30
2022-11-26T13:41:17.150Z,9.30
2022-11-26T13:44:06.829Z,9.30
2022-11-26T13:46:48.421Z,9.20
2022-11-26T13:49:30.195Z,9.20
2022-11-26T13:52:10.430Z,9.20
2022-11-26T13:54:37.497Z,9.20
2022-11-26T13:57:19.526Z,9.20
2022-11-26T13:59:56.074Z,9.10
2022-11-26T14:02:44.391Z,9.00
2022-11-26T14:05:14.521Z,8.80
2022-11-26T14:07:42.567Z,8.60
2022-11-26T14:10:35.852Z,8.50
2022-11-26T14:13:02.732Z,8.40
2022-11-26T14:15:41.818Z,8.20
2022-11-26T14:18:17.062Z,8.10
2022-11-26T14:21:01.892Z,8.00
2022-11-26T14:23:46.411Z,8.00
2022-11-26T14:26:22.112Z,7.90
2022-11-26T14:28:48.846Z,7.80
2022-11-26T14:31:25.281Z,7.80
2022-11-26T14:33:56.026Z,7.70
2022-11-26T14:36:28.416Z,7.60
2022-11-26T14:41:23.054Z,7.40
2022-11-26T14:44:05.968Z,7.20
2022-11-26T14:46:32.703Z,7.10
2022-11-26T14:49:00.374Z,7.00
2022-11-26T14:51:28.144Z,6.90
2022-11-26T14:53:56.455Z,6.80
2022-11-26T14:56:25.219Z,6.60
2022-11-26T14:58:55.195Z,6.50
2022-11-26T15:01:26.597Z,6.30
2022-11-26T15:03:57.107Z,6.10
2022-11-26T15:06:30.470Z,6.00
2022-11-26T15:09:20.114Z,5.90
2022-11-26T15:12:07.018Z,5.80
2022-11-26T15:14:54.552Z,5.70
2022-11-26T15:17:23.997Z,5.60
2022-11-26T15:19:53.116Z,5.50
2022-11-26T15:22:38.124Z,5.40
2022-11-26T15:25:06.679Z,5.30
2022-11-26T15:27:39.478Z,5.30
2022-11-26T15:30:19.906Z,5.20
2022-11-26T15:32:46.678Z,5.10
2022-11-26T15:35:15.350Z,5.00
2022-11-26T15:37:42.362Z,4.90
2022-11-26T15:40:24.212Z,4.90
2022-11-26T15:42:57.958Z,4.80
2022-11-26T15:45:55.625Z,4.70
2022-11-26T15:48:51.397Z,4.70
2022-11-26T15:51:35.553Z,4.60
2022-11-26T15:54:04.820Z,4.60
2022-11-26T15:56:36.381Z,4.50
2022-11-26T15:59:13.701Z,4.50
2022-11-26T16:01:44.743Z,4.40
2022-11-26T16:04:33.493Z,4.40
2022-11-26T16:07:21.032Z,4.30
2022-11-26T16:09:49.784Z,4.20
2022-11-26T16:12:31.157Z,4.20
2022-11-26T16:15:16.882Z,4.10
2022-11-26T16:17:44.135Z,4.00
2022-11-26T16:20:21.598Z,4.00
2022-11-26T16:22:50.902Z,3.90
2022-11-26T16:25:36.587Z,3.80
2022-11-26T16:28:14.391Z,3.70
2022-11-26T16:30:44.037Z,3.60
2022-11-26T16:33:11.079Z,3.60
2022-11-26T16:35:46.453Z,3.60
2022-11-26T16:38:25.201Z,3.50
2022-11-26T16:40:52.805Z,3.40
2022-11-26T16:43:20.156Z,3.40
2022-11-26T16:45:48.434Z,3.40
2022-11-26T16:48:26.588Z,3.40
2022-11-26T16:50:56.465Z,3.40
2022-11-26T16:53:23.480Z,3.40
2022-11-26T16:55:51.062Z,3.40
2022-11-26T16:58:29.732Z,3.40
2022-11-26T17:00:57.231Z,3.40
2022-11-26T17:03:25.547Z,3.40
2022-11-26T17:05:55.309Z,3.30
2022-11-26T17:08:23.123Z,3.20
2022-11-26T17:10:51.203Z,3.10
2022-11-26T17:13:18.382Z,3.10
2022-11-26T17:15:45.546Z,3.00
2022-11-26T17:18:23.889Z,3.00
2022-11-26T17:20:51.768Z,2.90
2022-11-26T17:23:19.082Z,2.90
2022-11-26T17:25:49.610Z,2.90
2022-11-26T17:28:16.503Z,2.90
2022-11-26T17:30:44.723Z,2.90
2022-11-26T17:33:12.001Z,2.90
2022-11-26T17:35:39.214Z,2.90
2022-11-26T17:38:18.281Z,3.00
2022-11-26T17:40:46.210Z,3.00
2022-11-26T17:43:13.377Z,3.00
2022-11-26T17:45:41.210Z,3.10
2022-11-26T17:48:12.124Z,3.10
2022-11-26T17:50:39.280Z,3.10
2022-11-26T17:53:06.026Z,3.20
2022-11-26T17:55:32.825Z,3.20
2022-11-26T17:57:59.550Z,3.20
2022-11-26T18:00:28.480Z,3.20
2022-11-26T18:02:55.622Z,3.20
2022-11-26T18:05:22.630Z,3.30
2022-11-26T18:07:52.368Z,3.30
2022-11-26T18:10:21.022Z,3.30
2022-11-26T18:12:48.777Z,3.40
2022-11-26T18:15:24.028Z,3.40
2022-11-26T18:17:53.804Z,3.40
2022-11-26T18:20:23.443Z,3.50
2022-11-26T18:22:55.723Z,3.50
2022-11-26T18:25:22.951Z,3.50
2022-11-26T18:27:49.834Z,3.50
2022-11-26T18:30:18.550Z,3.50
2022-11-26T18:32:45.294Z,3.40
2022-11-26T18:35:12.191Z,3.50
2022-11-26T18:37:40.549Z,3.40
2022-11-26T18:40:10.057Z,3.40
2022-11-26T18:42:38.148Z,3.40
2022-11-26T18:45:07.762Z,3.40
2022-11-26T18:47:34.551Z,3.40
2022-11-26T18:50:01.249Z,3.40
2022-11-26T18:52:27.947Z,3.40
2022-11-26T18:54:54.703Z,3.30
2022-11-26T18:57:21.459Z,3.30
2022-11-26T18:59:50.420Z,3.30
2022-11-26T19:02:17.447Z,3.20
2022-11-26T19:04:44.222Z,3.20
2022-11-26T19:07:12.640Z,3.10
2022-11-26T19:09:39.716Z,3.10
2022-11-26T19:12:06.785Z,3.10
2022-11-26T19:14:33.461Z,3.00
2022-11-26T19:17:00.637Z,2.90
2022-11-26T19:19:28.132Z,2.90
2022-11-26T19:22:01.012Z,2.90
2022-11-26T19:24:29.075Z,2.80
2022-11-26T19:26:56.309Z,2.80
2022-11-26T19:29:23.128Z,2.70
2022-11-26T19:31:49.833Z,2.60
2022-11-26T19:34:16.876Z,2.60
2022-11-26T19:36:48.104Z,2.50
2022-11-26T19:39:15.949Z,2.40
2022-11-26T19:41:43.189Z,2.40
2022-11-26T19:44:09.989Z,2.30
2022-11-26T19:46:40.592Z,2.30
2022-11-26T19:49:07.982Z,2.30
2022-11-26T19:51:34.733Z,2.20
2022-11-26T19:54:01.586Z,2.10
2022-11-26T19:56:32.298Z,2.10
2022-11-26T19:59:01.957Z,2.00
2022-11-26T20:01:34.066Z,1.90
2022-11-26T20:04:03.645Z,1.90
2022-11-26T20:06:32.237Z,1.90
2022-11-26T20:08:59.247Z,1.80
2022-11-26T20:11:27.272Z,1.80
2022-11-26T20:13:54.414Z,1.70
2022-11-26T20:16:23.799Z,1.70
2022-11-26T20:18:51.133Z,1.70
2022-11-26T20:21:22.347Z,1.70
2022-11-26T20:23:50.585Z,1.60
2022-11-26T20:26:26.364Z,1.60
2022-11-26T20:28:53.752Z,1.50
2022-11-26T20:31:24.273Z,1.50
2022-11-26T20:33:52.887Z,1.50
2022-11-26T20:36:22.715Z,1.40
2022-11-26T20:38:54.153Z,1.40
2022-11-26T20:41:21.300Z,1.40
2022-11-26T20:43:48.071Z,1.40
2022-11-26T20:46:15.267Z,1.40
2022-11-26T20:48:43.853Z,1.40
2022-11-26T20:51:14.016Z,1.40
2022-11-26T20:53:41.590Z,1.30
2022-11-26T20:56:09.239Z,1.30
2022-11-26T20:58:36.313Z,1.30
2022-11-26T21:01:03.285Z,1.30
2022-11-26T21:03:30.970Z,1.20
2022-11-26T21:06:02.089Z,1.20
2022-11-26T21:08:28.906Z,1.20
2022-11-26T21:10:55.625Z,1.20
2022-11-26T21:13:22.897Z,1.20
2022-11-26T21:15:49.617Z,1.10
2022-11-26T21:18:16.817Z,1.20
2022-11-26T21:20:44.355Z,1.20
2022-11-26T21:23:12.540Z,1.10
2022-11-26T21:25:41.853Z,1.10
2022-11-26T21:28:10.580Z,1.10
2022-11-26T21:30:38.708Z,1.10
2022-11-26T21:33:09.212Z,1.10
2022-11-26T21:35:37.061Z,1.10
2022-11-26T21:38:05.025Z,1.00
2022-11-26T21:40:32.264Z,1.00
2022-11-26T21:42:59.058Z,0.90
2022-11-26T21:45:27.505Z,0.90
2022-11-26T21:47:54.236Z,0.90
2022-11-26T21:50:20.966Z,0.90
2022-11-26T21:52:47.736Z,0.90
2022-11-26T21:55:14.606Z,0.80
2022-11-26T21:57:41.350Z,0.80
2022-11-26T22:00:09.230Z,0.80
2022-11-26T22:02:36.106Z,0.80
2022-11-26T22:05:02.887Z,0.80
2022-11-26T22:07:30.612Z,0.80
2022-11-26T22:09:57.649Z,0.70
2022-11-26T22:12:24.408Z,0.70
2022-11-26T22:14:51.301Z,0.70
2022-11-26T22:17:18.017Z,0.60
2022-11-26T22:19:44.805Z,0.70
2022-11-26T22:22:11.605Z,0.60
2022-11-26T22:24:38.290Z,0.60
2022-11-26T22:27:05.047Z,0.60
2022-11-26T22:29:31.812Z,0.60
2022-11-26T22:31:58.485Z,0.60
2022-11-26T22:34:27.307Z,0.60
2022-11-26T22:36:54.001Z,0.50
2022-11-26T22:39:20.728Z,0.50
2022-11-26T22:41:48.341Z,0.50
2022-11-26T22:44:15.913Z,0.50
2022-11-26T22:46:42.747Z,0.50
2022-11-26T22:49:15.665Z,0.40
2022-11-26T22:51:42.462Z,0.40
2022-11-26T22:54:12.858Z,0.40
2022-11-26T22:56:39.703Z,0.40
2022-11-26T22:59:08.226Z,0.40
2022-11-26T23:01:36.444Z,0.40
2022-11-26T23:04:05.760Z,0.30
2022-11-26T23:06:34.183Z,0.30
2022-11-26T23:09:03.287Z,0.30
2022-11-26T23:11:32.994Z,0.30
2022-11-26T23:13:59.730Z,0.30
2022-11-26T23:16:27.200Z,0.30
2022-11-26T23:18:55.886Z,0.30
2022-11-26T23:21:25.120Z,0.30
2022-11-26T23:23:52.206Z,0.30
2022-11-26T23:26:26.388Z,0.20
2022-11-26T23:28:55.104Z,0.20
2022-11-26T23:31:25.031Z,0.20
2022-11-26T23:33:52.276Z,0.20
2022-11-26T23:36:20.407Z,0.20
2022-11-26T23:38:47.670Z,0.20
2022-11-26T23:41:15.145Z,0.20
2022-11-26T23:43:42.062Z,0.20
2022-11-26T23:46:14.166Z,0.20
2022-11-26T23:48:41.344Z,0.20
2022-11-26T23:51:10.359Z,0.20
2022-11-26T23:53:38.831Z,0.20
2022-11-26T23:56:08.139Z,0.20
2022-11-26T23:58:34.906Z,0.30
